KQA305 OMDB-HKJK
Flight info
| Callsign | KQA305 |
|---|---|
| Flight time | 4h 17m |
| Altitude | 39000 |
| Route | ANVIX R401 GIDIS G783 UKRAG L710 KUKDI/N0490F380 B400 RIGAM B403 BOMIX UB403 DAROT/N0486F400 UB403 MAV UP312 WAV WAJI1A |
| Aircraft | B78X/H-SDE1E2E3FGHIJ2J3J4J5M1RWXY/LB1D1 |
Departure
| Time | 2026-04-25 16:59 |
|---|---|
| Airport | Dubai International Airport (OMDB) |
Arrival
| Time | 2026-04-25 21:17 |
|---|---|
| Airport | Jomo Kenyatta International Airport (HKJK) |
| Time | Latitude | Longitude | Altitude | Speed | Heading |
|---|---|---|---|---|---|
| 2026-04-25 16:01 | 25.24529 | 55.37046 | 27 ft | 0 kts | 211° |
| 2026-04-25 16:48 | 25.24532 | 55.37048 | 27 ft | 2 kts | 211° |
| 2026-04-25 16:48 | 25.24548 | 55.37058 | 26 ft | 3 kts | 211° |
| 2026-04-25 16:48 | 25.24565 | 55.37070 | 27 ft | 3 kts | 211° |
| 2026-04-25 16:49 | 25.24579 | 55.37079 | 27 ft | 3 kts | 208° |
| 2026-04-25 16:49 | 25.24592 | 55.37087 | 27 ft | 3 kts | 179° |
| 2026-04-25 16:49 | 25.24607 | 55.37086 | 24 ft | 3 kts | 149° |
| 2026-04-25 16:49 | 25.24622 | 55.37074 | 27 ft | 3 kts | 132° |
| 2026-04-25 16:50 | 25.24635 | 55.37058 | 26 ft | 3 kts | 123° |
| 2026-04-25 16:50 | 25.24638 | 55.37052 | 27 ft | 1 kts | 122° |
| 2026-04-25 16:53 | 25.24637 | 55.37054 | 28 ft | 1 kts | 122° |
| 2026-04-25 16:54 | 25.24630 | 55.37066 | 28 ft | 2 kts | 122° |
| 2026-04-25 16:54 | 25.24619 | 55.37087 | 28 ft | 4 kts | 122° |
| 2026-04-25 16:54 | 25.24602 | 55.37116 | 28 ft | 5 kts | 122° |
| 2026-04-25 16:54 | 25.24581 | 55.37154 | 28 ft | 6 kts | 122° |
| 2026-04-25 16:55 | 25.24556 | 55.37200 | 28 ft | 8 kts | 121° |
| 2026-04-25 16:55 | 25.24524 | 55.37256 | 28 ft | 9 kts | 123° |
| 2026-04-25 16:55 | 25.24487 | 55.37319 | 28 ft | 11 kts | 122° |
| 2026-04-25 16:55 | 25.24446 | 55.37394 | 28 ft | 12 kts | 121° |
| 2026-04-25 16:56 | 25.24398 | 55.37481 | 28 ft | 14 kts | 122° |
| 2026-04-25 16:56 | 25.24342 | 55.37578 | 28 ft | 16 kts | 122° |
| 2026-04-25 16:56 | 25.24284 | 55.37683 | 28 ft | 14 kts | 121° |
| 2026-04-25 16:56 | 25.24255 | 55.37747 | 28 ft | 3 kts | 104° |
| 2026-04-25 16:57 | 25.24259 | 55.37754 | 28 ft | 0 kts | 72° |
| 2026-04-25 16:57 | 25.24260 | 55.37755 | 28 ft | 1 kts | 67° |
| 2026-04-25 16:57 | 25.24284 | 55.37778 | 28 ft | 6 kts | 40° |
| 2026-04-25 16:57 | 25.24335 | 55.37817 | 29 ft | 12 kts | 33° |
| 2026-04-25 16:58 | 25.24420 | 55.37880 | 34 ft | 17 kts | 34° |
| 2026-04-25 16:58 | 25.24533 | 55.37964 | 33 ft | 24 kts | 35° |
| 2026-04-25 16:58 | 25.24692 | 55.38081 | 34 ft | 27 kts | 31° |
| 2026-04-25 16:58 | 25.24795 | 55.38061 | 36 ft | 15 kts | 305° |
| 2026-04-25 16:59 | 25.24856 | 55.37938 | 36 ft | 28 kts | 301° |
| 2026-04-25 16:59 | 25.25115 | 55.37471 | 36 ft | 114 kts | 301° |
| 2026-04-25 16:59 | 25.25670 | 55.36471 | 89 ft | 185 kts | 299° |
| 2026-04-25 16:59 | 25.26327 | 55.35173 | 772 ft | 209 kts | 299° |
| 2026-04-25 17:00 | 25.26878 | 55.34244 | 1414 ft | 216 kts | 305° |
| 2026-04-25 17:00 | 25.27895 | 55.32474 | 3139 ft | 192 kts | 302° |
| 2026-04-25 17:00 | 25.28609 | 55.31176 | 3931 ft | 201 kts | 301° |
| 2026-04-25 17:00 | 25.29217 | 55.29785 | 3869 ft | 207 kts | 279° |
| 2026-04-25 17:01 | 25.29029 | 55.28203 | 3751 ft | 212 kts | 251° |
| 2026-04-25 17:01 | 25.28417 | 55.26713 | 3957 ft | 213 kts | 245° |
| 2026-04-25 17:01 | 25.27775 | 55.25279 | 4631 ft | 207 kts | 246° |
| 2026-04-25 17:01 | 25.27169 | 55.23860 | 5774 ft | 202 kts | 247° |
| 2026-04-25 17:02 | 25.26776 | 55.22934 | 6468 ft | 204 kts | 247° |
| 2026-04-25 17:02 | 25.26166 | 55.21489 | 7503 ft | 207 kts | 246° |
| 2026-04-25 17:02 | 25.25536 | 55.20003 | 8285 ft | 223 kts | 246° |
| 2026-04-25 17:02 | 25.25089 | 55.18953 | 8762 ft | 236 kts | 245° |
| 2026-04-25 17:03 | 25.23044 | 55.16928 | 10212 ft | 256 kts | 202° |
| 2026-04-25 17:03 | 25.21840 | 55.16706 | 10679 ft | 267 kts | 176° |
| 2026-04-25 17:03 | 25.19370 | 55.17273 | 11902 ft | 281 kts | 154° |
| 2026-04-25 17:03 | 25.17834 | 55.18632 | 12745 ft | 297 kts | 129° |
| 2026-04-25 17:04 | 25.16768 | 55.20676 | 13374 ft | 316 kts | 118° |
| 2026-04-25 17:04 | 25.16078 | 55.22140 | 13993 ft | 321 kts | 118° |
| 2026-04-25 17:04 | 25.15034 | 55.24340 | 14879 ft | 327 kts | 119° |
| 2026-04-25 17:04 | 25.13976 | 55.26534 | 15776 ft | 333 kts | 119° |
| 2026-04-25 17:05 | 25.12873 | 55.28815 | 16693 ft | 338 kts | 119° |
| 2026-04-25 17:05 | 25.10653 | 55.33481 | 18432 ft | 350 kts | 115° |
| 2026-04-25 17:05 | 25.09547 | 55.35947 | 18884 ft | 365 kts | 129° |
| 2026-04-25 17:06 | 25.07661 | 55.37857 | 19234 ft | 379 kts | 153° |
| 2026-04-25 17:06 | 25.05153 | 55.38912 | 19504 ft | 393 kts | 173° |
| 2026-04-25 17:06 | 25.02411 | 55.39209 | 20097 ft | 401 kts | 180° |
| 2026-04-25 17:06 | 24.99597 | 55.39351 | 20825 ft | 406 kts | 180° |
| 2026-04-25 17:07 | 24.96794 | 55.39614 | 21551 ft | 412 kts | 175° |
| 2026-04-25 17:07 | 24.93957 | 55.40248 | 22298 ft | 420 kts | 168° |
| 2026-04-25 17:07 | 24.91146 | 55.41192 | 23024 ft | 425 kts | 165° |
| 2026-04-25 17:07 | 24.88340 | 55.42222 | 23708 ft | 429 kts | 166° |
| 2026-04-25 17:08 | 24.85438 | 55.43113 | 24304 ft | 431 kts | 169° |
| 2026-04-25 17:08 | 24.82528 | 55.43880 | 24884 ft | 434 kts | 169° |
| 2026-04-25 17:08 | 24.79581 | 55.44729 | 25457 ft | 439 kts | 168° |
| 2026-04-25 17:08 | 24.76635 | 55.45653 | 26018 ft | 442 kts | 167° |
| 2026-04-25 17:09 | 24.73690 | 55.46549 | 26582 ft | 445 kts | 168° |
| 2026-04-25 17:09 | 24.70651 | 55.47428 | 27142 ft | 449 kts | 168° |
| 2026-04-25 17:09 | 24.67659 | 55.48301 | 27676 ft | 452 kts | 168° |
| 2026-04-25 17:09 | 24.64619 | 55.49213 | 28218 ft | 456 kts | 168° |
| 2026-04-25 17:10 | 24.61557 | 55.50130 | 28743 ft | 459 kts | 168° |
| 2026-04-25 17:10 | 24.58464 | 55.51042 | 29259 ft | 462 kts | 168° |
| 2026-04-25 17:10 | 24.55329 | 55.51964 | 29759 ft | 465 kts | 168° |
| 2026-04-25 17:10 | 24.52193 | 55.52894 | 30224 ft | 469 kts | 168° |
| 2026-04-25 17:11 | 24.49032 | 55.53832 | 30619 ft | 472 kts | 168° |
| 2026-04-25 17:11 | 24.45852 | 55.54771 | 30999 ft | 476 kts | 168° |
| 2026-04-25 17:11 | 24.42642 | 55.55718 | 31373 ft | 479 kts | 168° |
| 2026-04-25 17:11 | 24.39416 | 55.56671 | 31738 ft | 483 kts | 168° |
| 2026-04-25 17:12 | 24.36192 | 55.57623 | 32092 ft | 486 kts | 168° |
| 2026-04-25 17:12 | 24.32944 | 55.58581 | 32439 ft | 490 kts | 168° |
| 2026-04-25 17:12 | 24.29608 | 55.59521 | 32786 ft | 491 kts | 173° |
| 2026-04-25 17:12 | 24.26249 | 55.59889 | 33143 ft | 488 kts | 184° |
| 2026-04-25 17:13 | 24.22853 | 55.59584 | 33503 ft | 485 kts | 194° |
| 2026-04-25 17:13 | 24.20693 | 55.59038 | 33713 ft | 483 kts | 199° |
| 2026-04-25 17:13 | 24.16330 | 55.57754 | 34090 ft | 489 kts | 198° |
| 2026-04-25 17:13 | 24.13073 | 55.56783 | 34432 ft | 489 kts | 199° |
| 2026-04-25 17:14 | 24.09770 | 55.55784 | 34821 ft | 489 kts | 199° |
| 2026-04-25 17:14 | 24.06518 | 55.54809 | 35163 ft | 490 kts | 199° |
| 2026-04-25 17:14 | 24.03220 | 55.53830 | 35507 ft | 491 kts | 200° |
| 2026-04-25 17:14 | 23.99937 | 55.52853 | 35848 ft | 492 kts | 200° |
| 2026-04-25 17:15 | 23.96636 | 55.51868 | 36195 ft | 492 kts | 200° |
| 2026-04-25 17:15 | 23.93309 | 55.50880 | 36529 ft | 493 kts | 200° |
| 2026-04-25 17:15 | 23.90001 | 55.49900 | 36872 ft | 494 kts | 201° |
| 2026-04-25 17:15 | 23.86681 | 55.48914 | 37207 ft | 494 kts | 201° |
| 2026-04-25 17:16 | 23.83407 | 55.47942 | 37540 ft | 495 kts | 201° |
| 2026-04-25 17:16 | 23.80085 | 55.46954 | 37874 ft | 495 kts | 201° |
| 2026-04-25 17:16 | 23.76777 | 55.45972 | 38213 ft | 496 kts | 201° |
| 2026-04-25 17:16 | 23.73437 | 55.44981 | 38539 ft | 496 kts | 202° |
| 2026-04-25 17:17 | 23.70106 | 55.43993 | 38825 ft | 496 kts | 202° |
| 2026-04-25 17:17 | 23.66768 | 55.43003 | 38917 ft | 501 kts | 202° |
| 2026-04-25 17:17 | 23.60111 | 55.41034 | 38919 ft | 495 kts | 202° |
| 2026-04-25 17:18 | 23.53319 | 55.39400 | 38965 ft | 505 kts | 190° |
| 2026-04-25 17:18 | 23.46237 | 55.40037 | 38951 ft | 525 kts | 170° |
| 2026-04-25 17:19 | 23.39165 | 55.42174 | 38918 ft | 528 kts | 168° |
| 2026-04-25 17:19 | 23.32113 | 55.44345 | 38928 ft | 528 kts | 169° |
| 2026-04-25 17:20 | 23.25063 | 55.46598 | 38922 ft | 529 kts | 168° |
| 2026-04-25 17:20 | 23.18102 | 55.48784 | 38923 ft | 529 kts | 169° |
| 2026-04-25 17:21 | 23.11040 | 55.51010 | 38914 ft | 530 kts | 168° |
| 2026-04-25 17:21 | 23.03932 | 55.53249 | 38909 ft | 530 kts | 169° |
| 2026-04-25 17:22 | 22.98037 | 55.55067 | 38904 ft | 530 kts | 169° |
| 2026-04-25 17:22 | 22.89762 | 55.57601 | 38894 ft | 530 kts | 169° |
| 2026-04-25 17:23 | 22.82689 | 55.59774 | 38894 ft | 530 kts | 169° |
| 2026-04-25 17:23 | 22.75592 | 55.61946 | 38892 ft | 531 kts | 169° |
| 2026-04-25 17:24 | 22.68473 | 55.64127 | 38895 ft | 531 kts | 169° |
| 2026-04-25 17:24 | 22.61422 | 55.66281 | 38895 ft | 531 kts | 169° |
| 2026-04-25 17:25 | 22.54318 | 55.68459 | 38891 ft | 531 kts | 169° |
| 2026-04-25 17:25 | 22.47183 | 55.70639 | 38892 ft | 532 kts | 169° |
| 2026-04-25 17:26 | 22.40096 | 55.72805 | 38891 ft | 532 kts | 169° |
| 2026-04-25 17:26 | 22.32931 | 55.74992 | 38889 ft | 533 kts | 169° |
| 2026-04-25 17:27 | 22.25815 | 55.77065 | 38891 ft | 529 kts | 177° |
| 2026-04-25 17:27 | 22.19762 | 55.77766 | 38900 ft | 526 kts | 180° |
| 2026-04-25 17:28 | 22.11269 | 55.78586 | 38902 ft | 526 kts | 180° |
| 2026-04-25 17:28 | 22.04037 | 55.79320 | 38900 ft | 526 kts | 180° |
| 2026-04-25 17:29 | 21.96716 | 55.80038 | 38898 ft | 527 kts | 180° |
| 2026-04-25 17:29 | 21.89415 | 55.80768 | 38897 ft | 527 kts | 180° |
| 2026-04-25 17:30 | 21.82098 | 55.81490 | 38894 ft | 528 kts | 180° |
| 2026-04-25 17:30 | 21.74785 | 55.82216 | 38892 ft | 528 kts | 180° |
| 2026-04-25 17:31 | 21.67441 | 55.82941 | 38899 ft | 529 kts | 180° |
| 2026-04-25 17:31 | 21.60169 | 55.83654 | 38895 ft | 529 kts | 180° |
| 2026-04-25 17:32 | 21.52821 | 55.84376 | 38890 ft | 530 kts | 180° |
| 2026-04-25 17:32 | 21.45507 | 55.85093 | 38894 ft | 530 kts | 180° |
| 2026-04-25 17:33 | 21.38132 | 55.85816 | 38886 ft | 531 kts | 180° |
| 2026-04-25 17:33 | 21.30789 | 55.86535 | 38902 ft | 531 kts | 180° |
| 2026-04-25 17:34 | 21.23458 | 55.87251 | 38899 ft | 532 kts | 180° |
| 2026-04-25 17:34 | 21.16093 | 55.87968 | 38908 ft | 533 kts | 180° |
| 2026-04-25 17:35 | 21.08731 | 55.88682 | 38899 ft | 537 kts | 179° |
| 2026-04-25 17:35 | 21.01250 | 55.89413 | 38900 ft | 539 kts | 179° |
| 2026-04-25 17:36 | 20.93743 | 55.90141 | 38901 ft | 539 kts | 179° |
| 2026-04-25 17:36 | 20.86310 | 55.90863 | 38902 ft | 540 kts | 179° |
| 2026-04-25 17:37 | 20.78825 | 55.91589 | 38898 ft | 540 kts | 179° |
| 2026-04-25 17:37 | 20.71331 | 55.92315 | 38897 ft | 540 kts | 179° |
| 2026-04-25 17:38 | 20.65103 | 55.92919 | 38904 ft | 540 kts | 178° |
| 2026-04-25 17:38 | 20.56402 | 55.93760 | 38904 ft | 540 kts | 178° |
| 2026-04-25 17:39 | 20.48905 | 55.94485 | 38901 ft | 541 kts | 178° |
| 2026-04-25 17:39 | 20.41420 | 55.95207 | 38900 ft | 541 kts | 178° |
| 2026-04-25 17:40 | 20.33915 | 55.95931 | 38898 ft | 541 kts | 178° |
| 2026-04-25 17:40 | 20.26473 | 55.96645 | 38905 ft | 541 kts | 178° |
| 2026-04-25 17:41 | 20.18965 | 55.97357 | 38901 ft | 541 kts | 178° |
| 2026-04-25 17:41 | 20.11478 | 55.98071 | 38900 ft | 542 kts | 178° |
| 2026-04-25 17:42 | 20.03963 | 55.98459 | 38916 ft | 540 kts | 182° |
| 2026-04-25 17:42 | 19.96490 | 55.98668 | 38919 ft | 541 kts | 182° |
| 2026-04-25 17:43 | 19.88948 | 55.98845 | 38926 ft | 542 kts | 182° |
| 2026-04-25 17:43 | 19.81422 | 55.99039 | 38923 ft | 542 kts | 182° |
| 2026-04-25 17:44 | 19.73886 | 55.99225 | 38926 ft | 542 kts | 182° |
| 2026-04-25 17:44 | 19.66337 | 55.99414 | 38929 ft | 543 kts | 182° |
| 2026-04-25 17:45 | 19.60065 | 55.99571 | 38930 ft | 543 kts | 182° |
| 2026-04-25 17:45 | 19.51371 | 55.99107 | 38942 ft | 533 kts | 200° |
| 2026-04-25 17:46 | 19.44647 | 55.96168 | 38956 ft | 518 kts | 216° |
| 2026-04-25 17:46 | 19.38350 | 55.92380 | 38940 ft | 519 kts | 216° |
| 2026-04-25 17:47 | 19.32075 | 55.88557 | 38935 ft | 520 kts | 216° |
| 2026-04-25 17:47 | 19.25849 | 55.84798 | 38941 ft | 520 kts | 216° |
| 2026-04-25 17:48 | 19.16411 | 55.79084 | 38946 ft | 520 kts | 216° |
| 2026-04-25 17:49 | 19.10125 | 55.75289 | 38947 ft | 520 kts | 216° |
| 2026-04-25 17:49 | 19.03834 | 55.71490 | 38947 ft | 521 kts | 216° |
| 2026-04-25 17:50 | 18.97592 | 55.67728 | 38949 ft | 521 kts | 216° |
| 2026-04-25 17:50 | 18.91292 | 55.63933 | 38950 ft | 521 kts | 216° |
| 2026-04-25 17:51 | 18.85007 | 55.60151 | 38952 ft | 521 kts | 216° |
| 2026-04-25 17:51 | 18.78738 | 55.56381 | 38950 ft | 521 kts | 216° |
| 2026-04-25 17:52 | 18.72540 | 55.52657 | 38949 ft | 521 kts | 216° |
| 2026-04-25 17:52 | 18.66790 | 55.49206 | 38948 ft | 521 kts | 216° |
| 2026-04-25 17:53 | 18.60710 | 55.45558 | 38950 ft | 521 kts | 216° |
| 2026-04-25 17:53 | 18.54425 | 55.41792 | 38949 ft | 521 kts | 216° |
| 2026-04-25 17:54 | 18.48162 | 55.38041 | 38948 ft | 521 kts | 215° |
| 2026-04-25 17:54 | 18.41867 | 55.34276 | 38950 ft | 521 kts | 215° |
| 2026-04-25 17:55 | 18.35566 | 55.30508 | 38951 ft | 521 kts | 215° |
| 2026-04-25 17:55 | 18.29300 | 55.26768 | 38949 ft | 521 kts | 215° |
| 2026-04-25 17:56 | 18.22991 | 55.23005 | 38954 ft | 521 kts | 215° |
| 2026-04-25 17:56 | 18.16732 | 55.19274 | 38954 ft | 521 kts | 215° |
| 2026-04-25 17:57 | 18.10160 | 55.15978 | 38961 ft | 528 kts | 208° |
| 2026-04-25 17:57 | 18.04002 | 55.13171 | 38973 ft | 527 kts | 208° |
| 2026-04-25 17:58 | 17.97276 | 55.10170 | 38975 ft | 528 kts | 208° |
| 2026-04-25 17:58 | 17.90529 | 55.07133 | 38978 ft | 528 kts | 208° |
| 2026-04-25 17:59 | 17.83762 | 55.04103 | 38976 ft | 529 kts | 208° |
| 2026-04-25 17:59 | 17.76985 | 55.01065 | 38981 ft | 530 kts | 208° |
| 2026-04-25 18:00 | 17.70245 | 54.98049 | 38984 ft | 530 kts | 208° |
| 2026-04-25 18:00 | 17.63450 | 54.95010 | 38983 ft | 531 kts | 208° |
| 2026-04-25 18:01 | 17.56671 | 54.91981 | 38989 ft | 532 kts | 208° |
| 2026-04-25 18:01 | 17.49852 | 54.88936 | 38995 ft | 532 kts | 208° |
| 2026-04-25 18:02 | 17.43029 | 54.85893 | 38997 ft | 533 kts | 208° |
| 2026-04-25 18:02 | 17.36211 | 54.82853 | 38995 ft | 533 kts | 208° |
| 2026-04-25 18:03 | 17.29420 | 54.79828 | 38992 ft | 533 kts | 207° |
| 2026-04-25 18:03 | 17.23014 | 54.76091 | 38998 ft | 526 kts | 218° |
| 2026-04-25 18:04 | 17.16874 | 54.71963 | 38988 ft | 525 kts | 218° |
| 2026-04-25 18:04 | 17.10700 | 54.67840 | 38983 ft | 526 kts | 218° |
| 2026-04-25 18:05 | 17.04544 | 54.63721 | 38971 ft | 525 kts | 218° |
| 2026-04-25 18:05 | 16.98431 | 54.59638 | 38969 ft | 525 kts | 218° |
| 2026-04-25 18:06 | 16.92278 | 54.55531 | 38961 ft | 525 kts | 218° |
| 2026-04-25 18:06 | 16.86115 | 54.51419 | 38951 ft | 525 kts | 218° |
| 2026-04-25 18:07 | 16.79952 | 54.47309 | 38945 ft | 525 kts | 218° |
| 2026-04-25 18:07 | 16.73860 | 54.43250 | 38938 ft | 525 kts | 218° |
| 2026-04-25 18:08 | 16.67684 | 54.39137 | 38939 ft | 525 kts | 218° |
| 2026-04-25 18:08 | 16.61528 | 54.35041 | 38939 ft | 525 kts | 217° |
| 2026-04-25 18:09 | 16.55368 | 54.30947 | 38941 ft | 525 kts | 217° |
| 2026-04-25 18:09 | 16.49241 | 54.26876 | 38944 ft | 525 kts | 217° |
| 2026-04-25 18:10 | 16.43089 | 54.22792 | 38945 ft | 525 kts | 217° |
| 2026-04-25 18:10 | 16.36916 | 54.18698 | 38944 ft | 525 kts | 217° |
| 2026-04-25 18:11 | 16.30763 | 54.14620 | 38944 ft | 525 kts | 217° |
| 2026-04-25 18:11 | 16.24584 | 54.10528 | 38948 ft | 525 kts | 217° |
| 2026-04-25 18:12 | 16.18476 | 54.06485 | 38947 ft | 525 kts | 217° |
| 2026-04-25 18:12 | 16.12311 | 54.02409 | 38951 ft | 525 kts | 217° |
| 2026-04-25 18:13 | 16.06142 | 53.98333 | 38952 ft | 525 kts | 217° |
| 2026-04-25 18:13 | 15.99974 | 53.94259 | 38954 ft | 525 kts | 217° |
| 2026-04-25 18:14 | 15.90755 | 53.88178 | 38956 ft | 525 kts | 217° |
| 2026-04-25 18:14 | 15.84590 | 53.84099 | 38955 ft | 525 kts | 217° |
| 2026-04-25 18:15 | 15.78458 | 53.79971 | 38952 ft | 525 kts | 217° |
| 2026-04-25 18:15 | 15.72324 | 53.75890 | 38951 ft | 525 kts | 217° |
| 2026-04-25 18:16 | 15.66224 | 53.71809 | 38948 ft | 525 kts | 217° |
| 2026-04-25 18:17 | 15.56992 | 53.65656 | 38948 ft | 525 kts | 217° |
| 2026-04-25 18:17 | 15.50858 | 53.61566 | 38946 ft | 525 kts | 217° |
| 2026-04-25 18:18 | 15.44769 | 53.57513 | 38951 ft | 525 kts | 217° |
| 2026-04-25 18:18 | 15.38564 | 53.53474 | 38952 ft | 525 kts | 215° |
| 2026-04-25 18:19 | 15.32360 | 53.49539 | 38952 ft | 525 kts | 216° |
| 2026-04-25 18:19 | 15.26158 | 53.45531 | 38952 ft | 525 kts | 216° |
| 2026-04-25 18:20 | 15.19922 | 53.41559 | 38953 ft | 525 kts | 216° |
| 2026-04-25 18:20 | 15.13754 | 53.37597 | 38950 ft | 525 kts | 216° |
| 2026-04-25 18:21 | 15.07531 | 53.33625 | 38955 ft | 525 kts | 216° |
| 2026-04-25 18:21 | 15.01320 | 53.29650 | 38953 ft | 524 kts | 216° |
| 2026-04-25 18:22 | 14.95121 | 53.25694 | 38956 ft | 524 kts | 216° |
| 2026-04-25 18:22 | 14.88922 | 53.21735 | 38954 ft | 524 kts | 216° |
| 2026-04-25 18:23 | 14.82752 | 53.17800 | 38954 ft | 524 kts | 215° |
| 2026-04-25 18:23 | 14.76536 | 53.13837 | 38951 ft | 524 kts | 215° |
| 2026-04-25 18:24 | 14.70336 | 53.09888 | 38955 ft | 524 kts | 215° |
| 2026-04-25 18:24 | 14.64480 | 53.05564 | 38973 ft | 516 kts | 230° |
| 2026-04-25 18:25 | 14.59461 | 53.00293 | 38969 ft | 514 kts | 230° |
| 2026-04-25 18:25 | 14.54457 | 52.95029 | 38970 ft | 514 kts | 230° |
| 2026-04-25 18:26 | 14.49450 | 52.89765 | 38971 ft | 514 kts | 230° |
| 2026-04-25 18:26 | 14.44434 | 52.84498 | 38966 ft | 514 kts | 230° |
| 2026-04-25 18:27 | 14.39449 | 52.79265 | 38968 ft | 514 kts | 230° |
| 2026-04-25 18:27 | 14.34446 | 52.74018 | 38969 ft | 514 kts | 230° |
| 2026-04-25 18:28 | 14.29417 | 52.68747 | 38968 ft | 514 kts | 230° |
| 2026-04-25 18:28 | 14.24543 | 52.63641 | 38970 ft | 514 kts | 230° |
| 2026-04-25 18:29 | 14.17039 | 52.55787 | 38969 ft | 514 kts | 230° |
| 2026-04-25 18:30 | 14.06996 | 52.45288 | 38964 ft | 515 kts | 229° |
| 2026-04-25 18:30 | 14.01982 | 52.40052 | 38963 ft | 515 kts | 229° |
| 2026-04-25 18:31 | 13.96976 | 52.34827 | 38962 ft | 515 kts | 229° |
| 2026-04-25 18:31 | 13.91938 | 52.29573 | 38964 ft | 515 kts | 229° |
| 2026-04-25 18:32 | 13.86914 | 52.24336 | 38957 ft | 515 kts | 229° |
| 2026-04-25 18:32 | 13.81868 | 52.19080 | 38963 ft | 516 kts | 229° |
| 2026-04-25 18:33 | 13.76866 | 52.13873 | 38957 ft | 515 kts | 229° |
| 2026-04-25 18:33 | 13.71826 | 52.08630 | 38958 ft | 516 kts | 229° |
| 2026-04-25 18:34 | 13.66776 | 52.03380 | 38955 ft | 516 kts | 229° |
| 2026-04-25 18:34 | 13.61729 | 51.98137 | 38957 ft | 516 kts | 229° |
| 2026-04-25 18:35 | 13.56731 | 51.92947 | 38965 ft | 516 kts | 229° |
| 2026-04-25 18:35 | 13.51695 | 51.87695 | 38965 ft | 516 kts | 229° |
| 2026-04-25 18:36 | 13.46699 | 51.82393 | 38954 ft | 516 kts | 229° |
| 2026-04-25 18:36 | 13.41686 | 51.77137 | 38947 ft | 516 kts | 229° |
| 2026-04-25 18:37 | 13.36685 | 51.71861 | 38950 ft | 516 kts | 229° |
| 2026-04-25 18:37 | 13.31698 | 51.66624 | 38948 ft | 516 kts | 229° |
| 2026-04-25 18:38 | 13.26704 | 51.61370 | 38945 ft | 516 kts | 229° |
| 2026-04-25 18:38 | 13.21685 | 51.56099 | 38958 ft | 516 kts | 229° |
| 2026-04-25 18:39 | 13.16655 | 51.50819 | 38949 ft | 516 kts | 229° |
| 2026-04-25 18:39 | 13.11662 | 51.45581 | 38959 ft | 516 kts | 229° |
| 2026-04-25 18:40 | 13.06651 | 51.40327 | 38955 ft | 516 kts | 229° |
| 2026-04-25 18:40 | 13.01619 | 51.35055 | 38957 ft | 516 kts | 229° |
| 2026-04-25 18:41 | 12.96597 | 51.29796 | 38955 ft | 516 kts | 229° |
| 2026-04-25 18:41 | 12.91578 | 51.24543 | 38953 ft | 516 kts | 229° |
| 2026-04-25 18:42 | 12.88240 | 51.21052 | 38954 ft | 517 kts | 229° |
| 2026-04-25 18:42 | 12.81546 | 51.14054 | 38950 ft | 517 kts | 229° |
| 2026-04-25 18:43 | 12.76552 | 51.08838 | 38952 ft | 517 kts | 229° |
| 2026-04-25 18:43 | 12.71477 | 51.03540 | 38948 ft | 517 kts | 229° |
| 2026-04-25 18:44 | 12.66470 | 50.98316 | 38948 ft | 517 kts | 228° |
| 2026-04-25 18:44 | 12.61431 | 50.93062 | 38949 ft | 517 kts | 228° |
| 2026-04-25 18:45 | 12.56398 | 50.87818 | 38947 ft | 517 kts | 228° |
| 2026-04-25 18:45 | 12.53871 | 50.85185 | 39063 ft | 519 kts | 228° |
| 2026-04-25 18:45 | 12.51339 | 50.82549 | 39389 ft | 518 kts | 228° |
| 2026-04-25 18:46 | 12.48848 | 50.79957 | 39722 ft | 517 kts | 228° |
| 2026-04-25 18:46 | 12.46331 | 50.77338 | 39944 ft | 517 kts | 228° |
| 2026-04-25 18:46 | 12.41448 | 50.72260 | 39933 ft | 509 kts | 228° |
| 2026-04-25 18:47 | 12.36469 | 50.67081 | 39934 ft | 510 kts | 228° |
| 2026-04-25 18:47 | 12.31489 | 50.61910 | 39932 ft | 510 kts | 228° |
| 2026-04-25 18:48 | 12.26539 | 50.56768 | 39924 ft | 511 kts | 228° |
| 2026-04-25 18:48 | 12.21564 | 50.51607 | 39929 ft | 510 kts | 228° |
| 2026-04-25 18:49 | 12.16580 | 50.46424 | 39935 ft | 510 kts | 230° |
| 2026-04-25 18:49 | 12.11850 | 50.41025 | 39950 ft | 510 kts | 230° |
| 2026-04-25 18:50 | 12.07126 | 50.35697 | 39945 ft | 509 kts | 231° |
| 2026-04-25 18:50 | 12.02396 | 50.30296 | 39948 ft | 510 kts | 230° |
| 2026-04-25 18:51 | 11.99212 | 50.26706 | 39944 ft | 510 kts | 230° |
| 2026-04-25 18:51 | 11.92902 | 50.19531 | 39940 ft | 510 kts | 230° |
| 2026-04-25 18:52 | 11.88157 | 50.14163 | 39939 ft | 510 kts | 230° |
| 2026-04-25 18:52 | 11.83441 | 50.08814 | 39942 ft | 510 kts | 230° |
| 2026-04-25 18:53 | 11.78690 | 50.03438 | 39937 ft | 510 kts | 230° |
| 2026-04-25 18:53 | 11.73942 | 49.98063 | 39934 ft | 510 kts | 230° |
| 2026-04-25 18:54 | 11.66931 | 49.90135 | 39939 ft | 510 kts | 230° |
| 2026-04-25 18:55 | 11.62171 | 49.84755 | 39942 ft | 510 kts | 230° |
| 2026-04-25 18:55 | 11.57423 | 49.79393 | 39949 ft | 510 kts | 230° |
| 2026-04-25 18:56 | 11.52666 | 49.74023 | 39951 ft | 510 kts | 230° |
| 2026-04-25 18:56 | 11.47904 | 49.68651 | 39960 ft | 510 kts | 230° |
| 2026-04-25 18:57 | 11.43193 | 49.63338 | 39966 ft | 509 kts | 230° |
| 2026-04-25 18:57 | 11.38402 | 49.58022 | 39973 ft | 510 kts | 225° |
| 2026-04-25 18:58 | 11.33396 | 49.52892 | 39978 ft | 509 kts | 228° |
| 2026-04-25 18:58 | 11.25915 | 49.45242 | 39979 ft | 510 kts | 227° |
| 2026-04-25 18:59 | 11.15920 | 49.34999 | 39979 ft | 510 kts | 227° |
| 2026-04-25 19:00 | 11.08415 | 49.27317 | 39973 ft | 509 kts | 227° |
| 2026-04-25 19:01 | 11.01034 | 49.19776 | 39977 ft | 509 kts | 227° |
| 2026-04-25 19:01 | 10.96028 | 49.14665 | 39980 ft | 509 kts | 227° |
| 2026-04-25 19:02 | 10.88535 | 49.07017 | 39986 ft | 509 kts | 227° |
| 2026-04-25 19:03 | 10.82717 | 49.01084 | 39992 ft | 509 kts | 227° |
| 2026-04-25 19:03 | 10.76294 | 48.94537 | 39997 ft | 509 kts | 227° |
| 2026-04-25 19:04 | 10.68798 | 48.86900 | 40015 ft | 510 kts | 227° |
| 2026-04-25 19:05 | 10.58803 | 48.76730 | 40017 ft | 509 kts | 227° |
| 2026-04-25 19:06 | 10.53809 | 48.71651 | 40022 ft | 509 kts | 227° |
| 2026-04-25 19:06 | 10.46324 | 48.64043 | 40023 ft | 509 kts | 227° |
| 2026-04-25 19:07 | 10.38831 | 48.56434 | 40008 ft | 508 kts | 227° |
| 2026-04-25 19:08 | 10.31322 | 48.48813 | 40008 ft | 508 kts | 227° |
| 2026-04-25 19:09 | 10.23029 | 48.40404 | 40006 ft | 507 kts | 227° |
| 2026-04-25 19:10 | 10.13872 | 48.31125 | 40000 ft | 507 kts | 227° |
| 2026-04-25 19:10 | 10.08873 | 48.26063 | 39994 ft | 507 kts | 227° |
| 2026-04-25 19:11 | 10.03891 | 48.21020 | 39991 ft | 507 kts | 227° |
| 2026-04-25 19:11 | 9.98880 | 48.15951 | 39989 ft | 508 kts | 227° |
| 2026-04-25 19:12 | 9.93920 | 48.10936 | 39986 ft | 507 kts | 227° |
| 2026-04-25 19:12 | 9.88928 | 48.05890 | 39984 ft | 507 kts | 227° |
| 2026-04-25 19:13 | 9.83917 | 48.00827 | 39978 ft | 507 kts | 227° |
| 2026-04-25 19:13 | 9.78933 | 47.95795 | 39977 ft | 507 kts | 227° |
| 2026-04-25 19:14 | 9.73966 | 47.90781 | 39975 ft | 507 kts | 227° |
| 2026-04-25 19:14 | 9.68971 | 47.85742 | 39970 ft | 507 kts | 226° |
| 2026-04-25 19:15 | 9.63969 | 47.80697 | 39966 ft | 507 kts | 226° |
| 2026-04-25 19:15 | 9.58966 | 47.75654 | 39965 ft | 506 kts | 226° |
| 2026-04-25 19:16 | 9.54016 | 47.70667 | 39958 ft | 506 kts | 226° |
| 2026-04-25 19:16 | 9.49014 | 47.65629 | 39952 ft | 506 kts | 226° |
| 2026-04-25 19:17 | 9.44024 | 47.60606 | 39952 ft | 506 kts | 226° |
| 2026-04-25 19:17 | 9.39070 | 47.55621 | 39943 ft | 506 kts | 226° |
| 2026-04-25 19:18 | 9.34076 | 47.50598 | 39943 ft | 505 kts | 226° |
| 2026-04-25 19:18 | 9.29091 | 47.45586 | 39938 ft | 506 kts | 226° |
| 2026-04-25 19:19 | 9.24111 | 47.40581 | 39936 ft | 506 kts | 226° |
| 2026-04-25 19:19 | 9.19102 | 47.35548 | 39931 ft | 505 kts | 227° |
| 2026-04-25 19:20 | 9.14282 | 47.30451 | 39938 ft | 505 kts | 227° |
| 2026-04-25 19:20 | 9.09389 | 47.25356 | 39934 ft | 505 kts | 228° |
| 2026-04-25 19:21 | 9.04551 | 47.20224 | 39935 ft | 505 kts | 227° |
| 2026-04-25 19:21 | 8.97259 | 47.12568 | 39934 ft | 505 kts | 228° |
| 2026-04-25 19:22 | 8.92389 | 47.07452 | 39938 ft | 505 kts | 227° |
| 2026-04-25 19:23 | 8.85374 | 47.00077 | 39937 ft | 504 kts | 227° |
| 2026-04-25 19:23 | 8.78068 | 46.92409 | 39941 ft | 504 kts | 227° |
| 2026-04-25 19:24 | 8.73196 | 46.87295 | 39943 ft | 504 kts | 227° |
| 2026-04-25 19:25 | 8.63490 | 46.77114 | 39943 ft | 505 kts | 227° |
| 2026-04-25 19:25 | 8.58629 | 46.72018 | 39944 ft | 504 kts | 227° |
| 2026-04-25 19:26 | 8.53752 | 46.66908 | 39946 ft | 504 kts | 227° |
| 2026-04-25 19:26 | 8.48924 | 46.61851 | 39949 ft | 504 kts | 227° |
| 2026-04-25 19:27 | 8.45668 | 46.58441 | 39946 ft | 504 kts | 227° |
| 2026-04-25 19:27 | 8.39196 | 46.51666 | 39943 ft | 504 kts | 227° |
| 2026-04-25 19:28 | 8.34325 | 46.46570 | 39937 ft | 503 kts | 227° |
| 2026-04-25 19:28 | 8.29498 | 46.41521 | 39938 ft | 503 kts | 227° |
| 2026-04-25 19:29 | 8.24627 | 46.36429 | 39940 ft | 504 kts | 227° |
| 2026-04-25 19:29 | 8.19764 | 46.31335 | 39939 ft | 504 kts | 228° |
| 2026-04-25 19:30 | 8.14978 | 46.26188 | 39939 ft | 504 kts | 228° |
| 2026-04-25 19:30 | 8.10169 | 46.21086 | 39937 ft | 504 kts | 228° |
| 2026-04-25 19:31 | 8.05359 | 46.15951 | 39938 ft | 504 kts | 228° |
| 2026-04-25 19:31 | 8.00531 | 46.10814 | 39939 ft | 504 kts | 228° |
| 2026-04-25 19:32 | 7.95701 | 46.05671 | 39937 ft | 504 kts | 228° |
| 2026-04-25 19:32 | 7.92517 | 46.02282 | 39935 ft | 504 kts | 228° |
| 2026-04-25 19:33 | 7.86092 | 45.95448 | 39932 ft | 504 kts | 228° |
| 2026-04-25 19:33 | 7.81265 | 45.90314 | 39929 ft | 504 kts | 228° |
| 2026-04-25 19:34 | 7.76442 | 45.85188 | 39928 ft | 504 kts | 228° |
| 2026-04-25 19:34 | 7.71610 | 45.80054 | 39927 ft | 504 kts | 228° |
| 2026-04-25 19:35 | 7.67591 | 45.75784 | 39924 ft | 505 kts | 228° |
| 2026-04-25 19:35 | 7.61966 | 45.69831 | 39926 ft | 505 kts | 227° |
| 2026-04-25 19:36 | 7.57122 | 45.64705 | 39926 ft | 505 kts | 227° |
| 2026-04-25 19:36 | 7.52285 | 45.59589 | 39929 ft | 505 kts | 227° |
| 2026-04-25 19:37 | 7.48252 | 45.55325 | 39931 ft | 504 kts | 227° |
| 2026-04-25 19:37 | 7.42629 | 45.49381 | 39930 ft | 504 kts | 227° |
| 2026-04-25 19:38 | 7.37784 | 45.44262 | 39932 ft | 505 kts | 227° |
| 2026-04-25 19:38 | 7.33763 | 45.40015 | 39937 ft | 505 kts | 227° |
| 2026-04-25 19:39 | 7.28915 | 45.34895 | 39934 ft | 505 kts | 227° |
| 2026-04-25 19:39 | 7.24066 | 45.29777 | 39937 ft | 505 kts | 227° |
| 2026-04-25 19:40 | 7.19239 | 45.24683 | 39941 ft | 505 kts | 227° |
| 2026-04-25 19:40 | 7.14385 | 45.19563 | 39947 ft | 505 kts | 227° |
| 2026-04-25 19:41 | 7.09548 | 45.14462 | 39942 ft | 505 kts | 227° |
| 2026-04-25 19:41 | 7.05510 | 45.10205 | 39948 ft | 505 kts | 227° |
| 2026-04-25 19:42 | 6.99842 | 45.04231 | 39950 ft | 505 kts | 227° |
| 2026-04-25 19:42 | 6.94980 | 44.99109 | 39947 ft | 505 kts | 227° |
| 2026-04-25 19:43 | 6.89349 | 44.93179 | 39955 ft | 505 kts | 227° |
| 2026-04-25 19:43 | 6.85313 | 44.88929 | 39954 ft | 506 kts | 227° |
| 2026-04-25 19:44 | 6.80446 | 44.83807 | 39952 ft | 505 kts | 227° |
| 2026-04-25 19:44 | 6.75620 | 44.78728 | 39949 ft | 505 kts | 227° |
| 2026-04-25 19:45 | 6.70763 | 44.73620 | 39949 ft | 505 kts | 227° |
| 2026-04-25 19:45 | 6.65888 | 44.68514 | 39947 ft | 505 kts | 227° |
| 2026-04-25 19:46 | 6.62034 | 44.64478 | 39946 ft | 505 kts | 227° |
| 2026-04-25 19:47 | 6.60568 | 44.62940 | 39945 ft | 505 kts | 227° |
| 2026-04-25 19:47 | 6.56252 | 44.58420 | 39942 ft | 505 kts | 227° |
| 2026-04-25 19:48 | 6.51385 | 44.53325 | 39945 ft | 505 kts | 227° |
| 2026-04-25 19:48 | 6.46510 | 44.48221 | 39941 ft | 505 kts | 227° |
| 2026-04-25 19:49 | 6.42479 | 44.44005 | 39942 ft | 505 kts | 227° |
| 2026-04-25 19:49 | 6.36893 | 44.38161 | 39941 ft | 505 kts | 227° |
| 2026-04-25 19:50 | 6.29593 | 44.30527 | 39940 ft | 505 kts | 227° |
| 2026-04-25 19:51 | 6.24742 | 44.25457 | 39938 ft | 505 kts | 227° |
| 2026-04-25 19:51 | 6.19862 | 44.20357 | 39939 ft | 505 kts | 227° |
| 2026-04-25 19:52 | 6.14997 | 44.15275 | 39940 ft | 504 kts | 227° |
| 2026-04-25 19:52 | 6.10174 | 44.10238 | 39940 ft | 504 kts | 227° |
| 2026-04-25 19:53 | 6.05313 | 44.05162 | 39936 ft | 504 kts | 227° |
| 2026-04-25 19:53 | 6.00773 | 44.00423 | 39934 ft | 504 kts | 227° |
| 2026-04-25 19:54 | 5.95909 | 43.95347 | 39934 ft | 504 kts | 226° |
| 2026-04-25 19:54 | 5.91070 | 43.90299 | 39930 ft | 504 kts | 226° |
| 2026-04-25 19:55 | 5.86207 | 43.85227 | 39934 ft | 504 kts | 226° |
| 2026-04-25 19:55 | 5.81338 | 43.80150 | 39935 ft | 504 kts | 226° |
| 2026-04-25 19:56 | 5.76467 | 43.75072 | 39934 ft | 504 kts | 226° |
| 2026-04-25 19:56 | 5.71614 | 43.70015 | 39939 ft | 504 kts | 226° |
| 2026-04-25 19:57 | 5.66778 | 43.64977 | 39941 ft | 504 kts | 226° |
| 2026-04-25 19:57 | 5.61902 | 43.59920 | 39944 ft | 504 kts | 226° |
| 2026-04-25 19:58 | 5.57023 | 43.54857 | 39946 ft | 504 kts | 226° |
| 2026-04-25 19:58 | 5.52181 | 43.49834 | 39953 ft | 504 kts | 226° |
| 2026-04-25 19:59 | 5.47304 | 43.44778 | 39953 ft | 503 kts | 226° |
| 2026-04-25 19:59 | 5.42453 | 43.39748 | 39957 ft | 503 kts | 226° |
| 2026-04-25 20:00 | 5.37582 | 43.34700 | 39958 ft | 502 kts | 226° |
| 2026-04-25 20:00 | 5.32727 | 43.29669 | 39954 ft | 502 kts | 226° |
| 2026-04-25 20:01 | 5.25470 | 43.22151 | 39965 ft | 502 kts | 226° |
| 2026-04-25 20:01 | 5.20614 | 43.17123 | 39965 ft | 501 kts | 226° |
| 2026-04-25 20:02 | 5.15765 | 43.12102 | 39965 ft | 501 kts | 226° |
| 2026-04-25 20:02 | 5.10957 | 43.07125 | 39962 ft | 500 kts | 226° |
| 2026-04-25 20:03 | 5.06114 | 43.02113 | 39961 ft | 501 kts | 226° |
| 2026-04-25 20:03 | 5.01259 | 42.97090 | 39961 ft | 501 kts | 226° |
| 2026-04-25 20:04 | 4.96413 | 42.92078 | 39960 ft | 501 kts | 226° |
| 2026-04-25 20:04 | 4.91588 | 42.87089 | 39958 ft | 501 kts | 226° |
| 2026-04-25 20:05 | 4.86739 | 42.82074 | 39958 ft | 500 kts | 226° |
| 2026-04-25 20:05 | 4.81891 | 42.77064 | 40001 ft | 503 kts | 226° |
| 2026-04-25 20:06 | 4.79491 | 42.74583 | 40281 ft | 503 kts | 225° |
| 2026-04-25 20:06 | 4.77030 | 42.72040 | 40613 ft | 502 kts | 225° |
| 2026-04-25 20:06 | 4.74607 | 42.69536 | 40927 ft | 502 kts | 225° |
| 2026-04-25 20:06 | 4.72152 | 42.66999 | 40938 ft | 503 kts | 225° |
| 2026-04-25 20:07 | 4.67369 | 42.62058 | 40938 ft | 497 kts | 225° |
| 2026-04-25 20:07 | 4.62540 | 42.57071 | 40932 ft | 498 kts | 225° |
| 2026-04-25 20:08 | 4.57715 | 42.52088 | 40932 ft | 497 kts | 225° |
| 2026-04-25 20:08 | 4.52896 | 42.47114 | 40931 ft | 497 kts | 225° |
| 2026-04-25 20:09 | 4.48111 | 42.42175 | 40927 ft | 497 kts | 225° |
| 2026-04-25 20:09 | 4.43300 | 42.37210 | 40928 ft | 497 kts | 225° |
| 2026-04-25 20:10 | 4.38506 | 42.32264 | 40928 ft | 497 kts | 225° |
| 2026-04-25 20:10 | 4.33715 | 42.27322 | 40929 ft | 496 kts | 225° |
| 2026-04-25 20:11 | 4.28910 | 42.22366 | 40929 ft | 496 kts | 225° |
| 2026-04-25 20:11 | 4.24062 | 42.17367 | 40930 ft | 496 kts | 225° |
| 2026-04-25 20:12 | 4.19306 | 42.12464 | 40928 ft | 496 kts | 225° |
| 2026-04-25 20:12 | 4.15291 | 42.08326 | 40932 ft | 496 kts | 225° |
| 2026-04-25 20:13 | 4.09734 | 42.02599 | 40932 ft | 495 kts | 225° |
| 2026-04-25 20:13 | 4.04948 | 41.97667 | 40938 ft | 495 kts | 225° |
| 2026-04-25 20:14 | 4.00126 | 41.92699 | 40937 ft | 495 kts | 225° |
| 2026-04-25 20:14 | 3.95324 | 41.87753 | 40939 ft | 495 kts | 225° |
| 2026-04-25 20:15 | 3.90138 | 41.83231 | 40951 ft | 496 kts | 218° |
| 2026-04-25 20:15 | 3.84836 | 41.78895 | 40953 ft | 495 kts | 218° |
| 2026-04-25 20:16 | 3.79512 | 41.74533 | 40953 ft | 495 kts | 218° |
| 2026-04-25 20:16 | 3.74175 | 41.70168 | 40960 ft | 495 kts | 218° |
| 2026-04-25 20:17 | 3.68831 | 41.65793 | 40964 ft | 496 kts | 218° |
| 2026-04-25 20:17 | 3.63499 | 41.61433 | 40957 ft | 496 kts | 218° |
| 2026-04-25 20:18 | 3.58197 | 41.57095 | 40958 ft | 495 kts | 218° |
| 2026-04-25 20:18 | 3.52858 | 41.52729 | 40967 ft | 496 kts | 218° |
| 2026-04-25 20:19 | 3.47512 | 41.48357 | 40964 ft | 495 kts | 218° |
| 2026-04-25 20:19 | 3.42190 | 41.44006 | 40971 ft | 495 kts | 218° |
| 2026-04-25 20:20 | 3.36888 | 41.39671 | 40972 ft | 496 kts | 218° |
| 2026-04-25 20:20 | 3.31553 | 41.35310 | 40972 ft | 494 kts | 218° |
| 2026-04-25 20:21 | 3.26241 | 41.30968 | 40962 ft | 494 kts | 218° |
| 2026-04-25 20:21 | 3.20921 | 41.26621 | 40964 ft | 493 kts | 218° |
| 2026-04-25 20:22 | 3.16493 | 41.23004 | 40967 ft | 493 kts | 218° |
| 2026-04-25 20:22 | 3.10373 | 41.18004 | 40960 ft | 492 kts | 218° |
| 2026-04-25 20:23 | 3.05056 | 41.13661 | 40960 ft | 493 kts | 218° |
| 2026-04-25 20:23 | 2.99780 | 41.09352 | 40965 ft | 493 kts | 218° |
| 2026-04-25 20:24 | 2.94490 | 41.05032 | 40964 ft | 494 kts | 218° |
| 2026-04-25 20:24 | 2.89168 | 41.00687 | 40959 ft | 494 kts | 218° |
| 2026-04-25 20:25 | 2.83838 | 40.96336 | 40963 ft | 494 kts | 218° |
| 2026-04-25 20:25 | 2.78516 | 40.91991 | 40957 ft | 494 kts | 218° |
| 2026-04-25 20:26 | 2.73219 | 40.87667 | 40959 ft | 495 kts | 218° |
| 2026-04-25 20:26 | 2.67854 | 40.83289 | 40961 ft | 495 kts | 218° |
| 2026-04-25 20:27 | 2.62555 | 40.78965 | 40960 ft | 495 kts | 218° |
| 2026-04-25 20:27 | 2.57214 | 40.74607 | 40961 ft | 496 kts | 218° |
| 2026-04-25 20:28 | 2.51864 | 40.70243 | 40961 ft | 495 kts | 218° |
| 2026-04-25 20:28 | 2.46555 | 40.65912 | 40963 ft | 496 kts | 218° |
| 2026-04-25 20:29 | 2.41202 | 40.61546 | 40964 ft | 496 kts | 218° |
| 2026-04-25 20:29 | 2.35845 | 40.57217 | 40965 ft | 495 kts | 217° |
| 2026-04-25 20:30 | 2.30463 | 40.52930 | 40967 ft | 495 kts | 218° |
| 2026-04-25 20:30 | 2.25090 | 40.48608 | 40970 ft | 496 kts | 218° |
| 2026-04-25 20:31 | 2.19744 | 40.44335 | 40968 ft | 495 kts | 218° |
| 2026-04-25 20:31 | 2.14373 | 40.40026 | 40970 ft | 495 kts | 218° |
| 2026-04-25 20:32 | 2.08988 | 40.35716 | 40969 ft | 495 kts | 218° |
| 2026-04-25 20:32 | 2.03763 | 40.31530 | 40970 ft | 495 kts | 218° |
| 2026-04-25 20:33 | 1.98392 | 40.27229 | 40967 ft | 495 kts | 218° |
| 2026-04-25 20:33 | 1.93928 | 40.23654 | 40962 ft | 495 kts | 218° |
| 2026-04-25 20:34 | 1.87646 | 40.18624 | 40961 ft | 495 kts | 218° |
| 2026-04-25 20:34 | 1.82260 | 40.14311 | 40964 ft | 495 kts | 218° |
| 2026-04-25 20:35 | 1.76923 | 40.10038 | 40959 ft | 496 kts | 218° |
| 2026-04-25 20:35 | 1.71822 | 40.05482 | 40956 ft | 497 kts | 224° |
| 2026-04-25 20:36 | 1.66812 | 40.00611 | 40958 ft | 498 kts | 223° |
| 2026-04-25 20:36 | 1.61870 | 39.95832 | 40962 ft | 498 kts | 223° |
| 2026-04-25 20:37 | 1.56901 | 39.91011 | 40962 ft | 498 kts | 223° |
| 2026-04-25 20:37 | 1.51910 | 39.86179 | 40961 ft | 497 kts | 223° |
| 2026-04-25 20:38 | 1.46953 | 39.81374 | 40960 ft | 497 kts | 223° |
| 2026-04-25 20:38 | 1.42013 | 39.76589 | 40959 ft | 497 kts | 223° |
| 2026-04-25 20:39 | 1.37059 | 39.71789 | 40956 ft | 497 kts | 223° |
| 2026-04-25 20:39 | 1.32912 | 39.67772 | 40955 ft | 496 kts | 223° |
| 2026-04-25 20:40 | 1.27142 | 39.62183 | 40951 ft | 496 kts | 223° |
| 2026-04-25 20:40 | 1.22192 | 39.57389 | 40949 ft | 495 kts | 223° |
| 2026-04-25 20:41 | 1.17250 | 39.52603 | 40948 ft | 495 kts | 223° |
| 2026-04-25 20:41 | 1.12334 | 39.47842 | 40948 ft | 494 kts | 224° |
| 2026-04-25 20:42 | 1.07407 | 39.43071 | 40946 ft | 494 kts | 224° |
| 2026-04-25 20:42 | 1.02604 | 39.38420 | 40943 ft | 494 kts | 224° |
| 2026-04-25 20:43 | 0.97694 | 39.33665 | 40945 ft | 494 kts | 224° |
| 2026-04-25 20:43 | 0.92778 | 39.28905 | 40942 ft | 494 kts | 224° |
| 2026-04-25 20:44 | 0.87837 | 39.24120 | 40946 ft | 494 kts | 224° |
| 2026-04-25 20:44 | 0.82891 | 39.19332 | 40947 ft | 494 kts | 224° |
| 2026-04-25 20:45 | 0.77990 | 39.14587 | 40948 ft | 494 kts | 224° |
| 2026-04-25 20:45 | 0.73168 | 39.09918 | 40949 ft | 494 kts | 224° |
| 2026-04-25 20:46 | 0.68264 | 39.05171 | 40952 ft | 494 kts | 224° |
| 2026-04-25 20:46 | 0.63316 | 39.00381 | 40955 ft | 494 kts | 224° |
| 2026-04-25 20:47 | 0.58380 | 38.95602 | 40954 ft | 494 kts | 224° |
| 2026-04-25 20:47 | 0.53443 | 38.90823 | 40963 ft | 495 kts | 224° |
| 2026-04-25 20:48 | 0.48539 | 38.86076 | 40962 ft | 495 kts | 224° |
| 2026-04-25 20:48 | 0.43580 | 38.81276 | 40966 ft | 495 kts | 224° |
| 2026-04-25 20:49 | 0.38642 | 38.76496 | 40968 ft | 495 kts | 224° |
| 2026-04-25 20:49 | 0.33730 | 38.71741 | 40973 ft | 495 kts | 224° |
| 2026-04-25 20:50 | 0.28793 | 38.66962 | 40971 ft | 495 kts | 224° |
| 2026-04-25 20:50 | 0.23842 | 38.62170 | 40986 ft | 494 kts | 224° |
| 2026-04-25 20:51 | 0.18960 | 38.57445 | 40989 ft | 493 kts | 224° |
| 2026-04-25 20:51 | 0.14006 | 38.52650 | 40994 ft | 494 kts | 224° |
| 2026-04-25 20:52 | 0.09893 | 38.48669 | 40999 ft | 494 kts | 224° |
| 2026-04-25 20:52 | 0.04160 | 38.43120 | 41005 ft | 494 kts | 224° |
| 2026-04-25 20:53 | -0.00763 | 38.38355 | 41011 ft | 495 kts | 224° |
| 2026-04-25 20:53 | -0.05704 | 38.33572 | 41018 ft | 494 kts | 224° |
| 2026-04-25 20:54 | -0.10622 | 38.28813 | 41023 ft | 494 kts | 224° |
| 2026-04-25 20:54 | -0.15542 | 38.24051 | 41029 ft | 494 kts | 224° |
| 2026-04-25 20:55 | -0.20449 | 38.19300 | 40949 ft | 493 kts | 224° |
| 2026-04-25 20:55 | -0.22928 | 38.16902 | 40827 ft | 493 kts | 224° |
| 2026-04-25 20:55 | -0.25379 | 38.14529 | 40730 ft | 493 kts | 224° |
| 2026-04-25 20:56 | -0.30294 | 38.09772 | 40528 ft | 494 kts | 224° |
| 2026-04-25 20:56 | -0.32790 | 38.07355 | 40131 ft | 498 kts | 224° |
| 2026-04-25 20:56 | -0.35236 | 38.04988 | 39544 ft | 500 kts | 224° |
| 2026-04-25 20:57 | -0.37747 | 38.02557 | 38941 ft | 501 kts | 224° |
| 2026-04-25 20:57 | -0.40234 | 38.00150 | 38268 ft | 502 kts | 224° |
| 2026-04-25 20:57 | -0.42734 | 37.97731 | 37618 ft | 502 kts | 224° |
| 2026-04-25 20:57 | -0.45241 | 37.95303 | 36970 ft | 501 kts | 224° |
| 2026-04-25 20:58 | -0.47747 | 37.92878 | 36297 ft | 502 kts | 224° |
| 2026-04-25 20:58 | -0.50260 | 37.90446 | 35627 ft | 502 kts | 224° |
| 2026-04-25 20:58 | -0.52758 | 37.88027 | 34971 ft | 503 kts | 224° |
| 2026-04-25 20:58 | -0.55286 | 37.85580 | 34323 ft | 503 kts | 224° |
| 2026-04-25 20:59 | -0.57759 | 37.83187 | 33640 ft | 503 kts | 224° |
| 2026-04-25 20:59 | -0.60267 | 37.80758 | 32986 ft | 500 kts | 224° |
| 2026-04-25 20:59 | -0.62743 | 37.78362 | 32357 ft | 498 kts | 224° |
| 2026-04-25 20:59 | -0.65222 | 37.75961 | 31721 ft | 495 kts | 224° |
| 2026-04-25 21:00 | -0.67699 | 37.73563 | 30830 ft | 497 kts | 224° |
| 2026-04-25 21:00 | -0.68518 | 37.72771 | 30472 ft | 500 kts | 224° |
| 2026-04-25 21:00 | -0.75136 | 37.66364 | 28688 ft | 489 kts | 224° |
| 2026-04-25 21:01 | -0.77535 | 37.64041 | 28086 ft | 483 kts | 224° |
| 2026-04-25 21:01 | -0.79918 | 37.61733 | 27502 ft | 479 kts | 224° |
| 2026-04-25 21:01 | -0.82292 | 37.59436 | 26904 ft | 474 kts | 224° |
| 2026-04-25 21:01 | -0.84647 | 37.57156 | 26318 ft | 469 kts | 224° |
| 2026-04-25 21:02 | -0.86980 | 37.54896 | 25739 ft | 465 kts | 224° |
| 2026-04-25 21:02 | -0.89300 | 37.52650 | 25170 ft | 461 kts | 224° |
| 2026-04-25 21:02 | -0.91570 | 37.50452 | 24612 ft | 458 kts | 223° |
| 2026-04-25 21:02 | -0.93876 | 37.48219 | 24039 ft | 454 kts | 223° |
| 2026-04-25 21:03 | -0.96110 | 37.46057 | 23452 ft | 451 kts | 223° |
| 2026-04-25 21:03 | -0.98328 | 37.43909 | 22903 ft | 445 kts | 223° |
| 2026-04-25 21:03 | -1.00549 | 37.41758 | 22371 ft | 439 kts | 223° |
| 2026-04-25 21:03 | -1.02734 | 37.39642 | 21838 ft | 434 kts | 223° |
| 2026-04-25 21:04 | -1.04885 | 37.37559 | 21316 ft | 428 kts | 223° |
| 2026-04-25 21:04 | -1.07011 | 37.35500 | 20786 ft | 423 kts | 223° |
| 2026-04-25 21:04 | -1.09107 | 37.33470 | 20299 ft | 418 kts | 223° |
| 2026-04-25 21:04 | -1.11196 | 37.31448 | 19785 ft | 414 kts | 223° |
| 2026-04-25 21:05 | -1.13196 | 37.29511 | 19323 ft | 409 kts | 223° |
| 2026-04-25 21:05 | -1.15203 | 37.27567 | 18814 ft | 405 kts | 223° |
| 2026-04-25 21:05 | -1.17045 | 37.25783 | 18365 ft | 401 kts | 224° |
| 2026-04-25 21:05 | -1.19047 | 37.23843 | 17856 ft | 395 kts | 223° |
| 2026-04-25 21:06 | -1.21011 | 37.21942 | 17394 ft | 388 kts | 223° |
| 2026-04-25 21:06 | -1.22933 | 37.20080 | 16933 ft | 382 kts | 223° |
| 2026-04-25 21:06 | -1.24829 | 37.18243 | 16481 ft | 376 kts | 223° |
| 2026-04-25 21:06 | -1.26061 | 37.17051 | 16179 ft | 373 kts | 223° |
| 2026-04-25 21:07 | -1.28398 | 37.14581 | 15620 ft | 365 kts | 234° |
| 2026-04-25 21:07 | -1.29857 | 37.12546 | 15177 ft | 359 kts | 233° |
| 2026-04-25 21:07 | -1.31344 | 37.10544 | 14755 ft | 355 kts | 233° |
| 2026-04-25 21:07 | -1.32799 | 37.08573 | 14333 ft | 350 kts | 233° |
| 2026-04-25 21:08 | -1.34229 | 37.06609 | 13899 ft | 352 kts | 233° |
| 2026-04-25 21:08 | -1.35663 | 37.04641 | 13462 ft | 347 kts | 233° |
| 2026-04-25 21:08 | -1.37080 | 37.02707 | 13043 ft | 341 kts | 233° |
| 2026-04-25 21:08 | -1.38469 | 37.00812 | 12642 ft | 335 kts | 233° |
| 2026-04-25 21:09 | -1.41098 | 36.97217 | 11870 ft | 324 kts | 233° |
| 2026-04-25 21:09 | -1.42413 | 36.95419 | 11485 ft | 318 kts | 233° |
| 2026-04-25 21:09 | -1.43714 | 36.93641 | 11101 ft | 313 kts | 233° |
| 2026-04-25 21:10 | -1.44984 | 36.91905 | 10802 ft | 306 kts | 233° |
| 2026-04-25 21:10 | -1.46156 | 36.90304 | 10691 ft | 293 kts | 233° |
| 2026-04-25 21:10 | -1.47337 | 36.88689 | 10498 ft | 283 kts | 233° |
| 2026-04-25 21:10 | -1.48488 | 36.87117 | 10240 ft | 282 kts | 233° |
| 2026-04-25 21:11 | -1.49590 | 36.85495 | 9916 ft | 287 kts | 244° |
| 2026-04-25 21:11 | -1.49976 | 36.83549 | 9618 ft | 280 kts | 271° |
| 2026-04-25 21:11 | -1.49517 | 36.81727 | 9360 ft | 274 kts | 297° |
| 2026-04-25 21:11 | -1.48369 | 36.80287 | 9130 ft | 261 kts | 321° |
| 2026-04-25 21:12 | -1.46939 | 36.79244 | 8905 ft | 250 kts | 325° |
| 2026-04-25 21:12 | -1.45569 | 36.78336 | 8780 ft | 235 kts | 333° |
| 2026-04-25 21:12 | -1.44021 | 36.78039 | 8628 ft | 221 kts | 5° |
| 2026-04-25 21:12 | -1.43055 | 36.78265 | 8496 ft | 210 kts | 24° |
| 2026-04-25 21:13 | -1.41615 | 36.79513 | 8230 ft | 210 kts | 52° |
| 2026-04-25 21:13 | -1.40754 | 36.80652 | 7975 ft | 210 kts | 55° |
| 2026-04-25 21:13 | -1.39915 | 36.81797 | 7702 ft | 194 kts | 55° |
| 2026-04-25 21:13 | -1.39163 | 36.82826 | 7461 ft | 170 kts | 56° |
| 2026-04-25 21:14 | -1.38480 | 36.83782 | 7258 ft | 168 kts | 56° |
| 2026-04-25 21:14 | -1.37801 | 36.84715 | 7060 ft | 166 kts | 56° |
| 2026-04-25 21:14 | -1.37122 | 36.85646 | 6856 ft | 165 kts | 56° |
| 2026-04-25 21:14 | -1.36454 | 36.86565 | 6653 ft | 163 kts | 55° |
| 2026-04-25 21:15 | -1.35772 | 36.87505 | 6458 ft | 171 kts | 49° |
| 2026-04-25 21:15 | -1.35100 | 36.88442 | 6231 ft | 168 kts | 53° |
| 2026-04-25 21:15 | -1.34402 | 36.89388 | 5927 ft | 166 kts | 54° |
| 2026-04-25 21:15 | -1.33720 | 36.90325 | 5657 ft | 169 kts | 54° |
| 2026-04-25 21:16 | -1.33029 | 36.91276 | 5493 ft | 167 kts | 55° |
| 2026-04-25 21:16 | -1.32328 | 36.92232 | 5361 ft | 172 kts | 54° |
| 2026-04-25 21:16 | -1.31674 | 36.93129 | 5308 ft | 141 kts | 52° |
| 2026-04-25 21:16 | -1.31219 | 36.93740 | 5300 ft | 71 kts | 53° |
| 2026-04-25 21:17 | -1.30981 | 36.94068 | 5299 ft | 55 kts | 54° |
| 2026-04-25 21:17 | -1.30797 | 36.94319 | 5296 ft | 31 kts | 54° |
| 2026-04-25 21:17 | -1.30693 | 36.94464 | 5298 ft | 23 kts | 52° |
| 2026-04-25 21:17 | -1.30601 | 36.94590 | 5297 ft | 19 kts | 54° |
| 2026-04-25 21:18 | -1.30570 | 36.94617 | 5296 ft | 0 kts | 53° |
| 2026-04-25 21:18 | -1.30570 | 36.94619 | 5296 ft | 1 kts | 64° |
| 2026-04-25 21:18 | -1.30571 | 36.94622 | 5297 ft | 1 kts | 79° |
| 2026-04-25 21:18 | -1.30573 | 36.94625 | 5297 ft | 1 kts | 96° |
| 2026-04-25 21:19 | -1.30576 | 36.94628 | 5297 ft | 0 kts | 118° |
| 2026-04-25 21:19 | -1.30581 | 36.94629 | 5297 ft | 1 kts | 141° |
| 2026-04-25 21:19 | -1.30586 | 36.94629 | 5297 ft | 1 kts | 167° |
| 2026-04-25 21:19 | -1.30591 | 36.94626 | 5297 ft | 1 kts | 195° |
| 2026-04-25 21:20 | -1.30594 | 36.94620 | 5297 ft | 1 kts | 225° |
| 2026-04-25 21:20 | -1.30596 | 36.94614 | 5297 ft | 3 kts | 239° |
| 2026-04-25 21:20 | -1.30629 | 36.94559 | 5298 ft | 11 kts | 238° |
| 2026-04-25 21:20 | -1.30680 | 36.94485 | 5296 ft | 15 kts | 235° |
| 2026-04-25 21:21 | -1.30753 | 36.94381 | 5297 ft | 22 kts | 234° |
| 2026-04-25 21:21 | -1.30857 | 36.94239 | 5298 ft | 27 kts | 234° |
| 2026-04-25 21:21 | -1.30975 | 36.94078 | 5299 ft | 31 kts | 233° |
| 2026-04-25 21:21 | -1.31107 | 36.93896 | 5301 ft | 33 kts | 234° |
| 2026-04-25 21:22 | -1.31210 | 36.93864 | 5302 ft | 12 kts | 148° |
| 2026-04-25 21:22 | -1.31293 | 36.93919 | 5301 ft | 16 kts | 140° |
| 2026-04-25 21:22 | -1.31391 | 36.93994 | 5304 ft | 19 kts | 150° |
| 2026-04-25 21:22 | -1.31446 | 36.93979 | 5311 ft | 7 kts | 227° |
| 2026-04-25 21:23 | -1.31488 | 36.93931 | 5304 ft | 10 kts | 233° |
| 2026-04-25 21:23 | -1.31538 | 36.93862 | 5307 ft | 14 kts | 233° |
| 2026-04-25 21:23 | -1.31607 | 36.93771 | 5309 ft | 20 kts | 233° |
| 2026-04-25 21:23 | -1.31702 | 36.93645 | 5307 ft | 25 kts | 232° |
| 2026-04-25 21:24 | -1.31811 | 36.93495 | 5311 ft | 29 kts | 236° |
| 2026-04-25 21:24 | -1.31930 | 36.93331 | 5311 ft | 30 kts | 233° |
| 2026-04-25 21:24 | -1.32062 | 36.93151 | 5314 ft | 31 kts | 234° |
| 2026-04-25 21:24 | -1.32131 | 36.93054 | 5317 ft | 17 kts | 234° |
| 2026-04-25 21:25 | -1.32207 | 36.92950 | 5319 ft | 21 kts | 233° |
| 2026-04-25 21:25 | -1.32305 | 36.92816 | 5334 ft | 26 kts | 234° |
| 2026-04-25 21:25 | -1.32420 | 36.92662 | 5336 ft | 30 kts | 233° |
| 2026-04-25 21:25 | -1.32551 | 36.92475 | 5336 ft | 35 kts | 233° |
| 2026-04-25 21:26 | -1.32687 | 36.92357 | 5335 ft | 16 kts | 169° |
| 2026-04-25 21:26 | -1.32763 | 36.92431 | 5334 ft | 15 kts | 101° |
| 2026-04-25 21:26 | -1.32775 | 36.92468 | 5334 ft | 2 kts | 149° |
| 2026-04-25 21:26 | -1.32802 | 36.92481 | 5335 ft | 6 kts | 160° |
| 2026-04-25 21:27 | -1.32850 | 36.92485 | 5334 ft | 8 kts | 175° |
| 2026-04-25 21:27 | -1.32854 | 36.92486 | 5334 ft | 0 kts | 176° |